Time;durP1;ratioP1;P1;durP2;ratioP2;P2;SDS_P1;SDS_P2;PMS_P1;PMS_P2;Temp;Humidity;BMP_temperature;BMP_pressure;BME280_temperature;BME280_humidity;BME280_pressure;Samples;Min_cycle;Max_cycle;Signal;HPM_P1;HPM_P2
2022/01/07 00:01:39;;;;;;;6.50;5.90;;;;;;;2.50;72.27;99626.09;1665151;84;20213;-63
2022/01/07 00:04:06;;;;;;;7.45;5.97;;;;;;;2.44;72.42;99625.91;1654930;85;21100;-64
2022/01/07 00:06:32;;;;;;;8.60;6.80;;;;;;;2.40;72.72;99628.02;1621763;86;21015;-64
2022/01/07 00:08:58;;;;;;;9.30;5.83;;;;;;;2.35;72.66;99627.63;1643504;86;22217;-64
2022/01/07 00:11:24;;;;;;;5.80;5.35;;;;;;;2.32;72.51;99630.59;1630437;86;21062;-64
2022/01/07 00:13:50;;;;;;;7.65;5.65;;;;;;;2.33;72.43;99642.74;1659633;85;21136;-64
2022/01/07 00:16:16;;;;;;;6.67;5.42;;;;;;;2.34;72.20;99642.59;1657024;85;21613;-65
2022/01/07 00:18:44;;;;;;;7.05;6.35;;;;;;;2.32;71.96;99646.37;1649559;85;21030;-63
2022/01/07 00:21:11;;;;;;;4.97;4.57;;;;;;;2.27;71.96;99644.17;1649639;85;21118;-69
2022/01/07 00:23:38;;;;;;;5.40;3.97;;;;;;;2.26;71.80;99648.27;1671409;84;21058;-63
2022/01/07 00:26:05;;;;;;;6.07;4.67;;;;;;;2.27;71.71;99648.62;1677442;84;21015;-65
2022/01/07 00:28:31;;;;;;;6.75;4.80;;;;;;;2.28;71.43;99644.53;1673908;85;20992;-65
2022/01/07 00:30:57;;;;;;;7.50;4.55;;;;;;;2.30;70.94;99650.95;1651420;85;21086;-63
2022/01/07 00:33:23;;;;;;;4.33;3.45;;;;;;;2.30;70.94;99650.95;1668265;85;21168;-65
2022/01/07 00:35:50;;;;;;;4.40;3.90;;;;;;;2.33;70.56;99657.20;1693112;83;21001;-63
2022/01/07 00:38:16;;;;;;;4.93;3.90;;;;;;;2.36;70.19;99663.48;1686267;83;21111;-66
2022/01/07 00:40:43;;;;;;;3.47;3.27;;;;;;;2.36;69.80;99656.91;1683496;84;21057;-65
2022/01/07 00:43:09;;;;;;;3.75;3.37;;;;;;;2.37;69.73;99658.55;1687391;84;21137;-67
2022/01/07 00:45:35;;;;;;;5.25;3.98;;;;;;;2.38;69.64;99668.11;1678038;84;21040;-63
2022/01/07 00:48:02;;;;;;;6.25;3.55;;;;;;;2.39;69.64;99661.03;1689345;83;21012;-63
2022/01/07 00:50:31;;;;;;;3.57;3.27;;;;;;;2.39;69.71;99667.11;1685316;84;21101;-64
2022/01/07 00:52:59;;;;;;;3.63;2.87;;;;;;;2.42;69.69;99669.95;1681973;84;21104;-61
2022/01/07 00:55:28;;;;;;;4.33;3.43;;;;;;;2.43;69.43;99674.22;1683555;83;21000;-63
2022/01/07 00:57:55;;;;;;;2.90;2.70;;;;;;;2.44;69.21;99670.12;1664365;84;21103;-70
2022/01/07 01:00:24;;;;;;;4.83;3.23;;;;;;;2.44;69.00;99672.75;1663080;84;21114;-64
2022/01/07 01:02:52;;;;;;;3.83;3.53;;;;;;;2.42;68.87;99677.34;1660486;84;21021;-64
2022/01/07 01:05:19;;;;;;;3.77;3.47;;;;;;;2.40;68.77;99675.36;1668914;84;21065;-63
2022/01/07 01:07:45;;;;;;;4.07;3.20;;;;;;;2.36;68.05;99684.53;1660570;84;21014;-62
2022/01/07 01:10:14;;;;;;;4.25;3.12;;;;;;;2.36;68.06;99679.77;1675613;84;21046;-63
2022/01/07 01:12:44;;;;;;;2.63;2.20;;;;;;;2.35;68.16;99694.70;1670503;84;21123;-63
2022/01/07 01:15:14;;;;;;;3.50;2.97;;;;;;;2.38;68.15;99699.67;1641902;86;20990;-64
2022/01/07 01:17:40;;;;;;;4.33;3.93;;;;;;;2.42;68.15;99694.44;1641476;87;21062;-63
2022/01/07 01:20:10;;;;;;;3.97;3.33;;;;;;;2.45;67.76;99695.47;1646892;86;21109;-64
2022/01/07 01:22:37;;;;;;;2.70;2.50;;;;;;;2.46;67.82;99699.73;1670811;84;21128;-63
2022/01/07 01:25:06;;;;;;;2.62;2.05;;;;;;;2.46;67.67;99697.10;1665193;85;21064;-67
2022/01/07 01:27:34;;;;;;;3.73;3.17;;;;;;;2.45;67.57;99698.56;1670317;85;21094;-64
2022/01/07 01:30:03;;;;;;;3.80;3.27;;;;;;;2.45;67.69;99700.72;1660850;85;21061;-63
2022/01/07 01:32:29;;;;;;;6.30;5.50;;;;;;;2.47;67.37;99693.50;1659498;85;21075;-64
2022/01/07 01:34:55;;;;;;;4.33;3.95;;;;;;;2.47;67.20;99704.52;1681170;84;21011;-62
2022/01/07 01:37:22;;;;;;;3.20;2.98;;;;;;;2.43;67.47;99698.73;1686108;84;21066;-68
2022/01/07 01:39:48;;;;;;;3.15;2.60;;;;;;;2.43;67.58;99709.26;1688303;84;21074;-63
2022/01/07 01:42:14;;;;;;;2.90;2.12;;;;;;;2.44;67.50;99710.89;1688421;84;21022;-65
2022/01/07 01:44:40;;;;;;;5.50;4.55;;;;;;;2.47;67.35;99711.10;1685242;84;21097;-62
2022/01/07 01:47:07;;;;;;;4.35;3.92;;;;;;;2.42;67.39;99724.69;1669745;84;21081;-63
2022/01/07 01:49:33;;;;;;;3.03;2.67;;;;;;;2.41;67.57;99737.52;1677389;84;21137;-64
2022/01/07 01:52:01;;;;;;;3.30;3.00;;;;;;;2.37;67.76;99741.41;1671470;84;21136;-62
2022/01/07 01:54:27;;;;;;;2.87;2.00;;;;;;;2.36;67.87;99743.71;1669726;84;21051;-64
2022/01/07 01:56:54;;;;;;;5.87;2.33;;;;;;;2.34;68.05;99745.17;1683083;83;21172;-65
2022/01/07 01:59:26;;;;;;;1.85;1.72;;;;;;;2.34;68.32;99753.06;1694092;83;21557;-64
2022/01/07 02:01:54;;;;;;;3.03;1.90;;;;;;;2.35;68.47;99757.83;1689358;83;20966;-63
2022/01/07 02:04:21;;;;;;;2.10;1.90;;;;;;;2.37;68.59;99761.12;1693558;83;21016;-62
2022/01/07 02:06:49;;;;;;;3.47;1.73;;;;;;;2.41;68.66;99768.23;1688569;83;21689;-63
2022/01/07 02:09:16;;;;;;;6.17;4.20;;;;;;;2.40;68.79;99766.10;1685594;83;21556;-62
2022/01/07 02:11:42;;;;;;;3.77;3.10;;;;;;;2.40;68.76;99763.47;1684362;83;21550;-64
2022/01/07 02:14:09;;;;;;;2.77;2.58;;;;;;;2.40;68.93;99762.16;1691345;83;21562;-66
2022/01/07 02:16:35;;;;;;;2.50;1.90;;;;;;;2.41;69.48;99769.55;1688527;83;21051;-61
2022/01/07 02:19:01;;;;;;;2.87;2.67;;;;;;;2.34;70.17;99769.34;1678970;83;21105;-63
2022/01/07 02:21:27;;;;;;;2.40;2.20;;;;;;;2.26;70.87;99770.55;1697699;83;20959;-63
2022/01/07 02:23:53;;;;;;;1.82;1.72;;;;;;;2.19;71.07;99775.59;1702248;82;21092;-64
2022/01/07 02:26:20;;;;;;;4.65;4.05;;;;;;;2.19;71.22;99776.09;1690886;83;21053;-68
2022/01/07 02:28:49;;;;;;;4.83;3.05;;;;;;;2.21;71.00;99778.08;1696282;83;21121;-62
2022/01/07 02:31:15;;;;;;;2.30;2.10;;;;;;;2.22;70.58;99787.61;1689060;83;21498;-62
2022/01/07 02:33:41;;;;;;;3.35;2.95;;;;;;;2.18;70.49;99784.94;1696470;83;21458;-63
2022/01/07 02:36:09;;;;;;;1.60;1.57;;;;;;;2.17;70.32;99780.64;1701241;83;21287;-62
2022/01/07 02:38:37;;;;;;;1.50;1.40;;;;;;;2.12;70.12;99783.72;1697033;83;21050;-63
2022/01/07 02:41:04;;;;;;;1.50;1.40;;;;;;;2.14;70.09;99801.48;1696165;83;21085;-62
2022/01/07 02:43:31;;;;;;;0.97;0.97;;;;;;;2.13;69.93;99795.41;1698759;83;21002;-62
2022/01/07 02:45:59;;;;;;;2.07;1.83;;;;;;;2.16;69.88;99796.91;1688845;83;21041;-63
2022/01/07 02:48:26;;;;;;;1.90;1.80;;;;;;;2.18;70.07;99805.47;1697338;83;21498;-62
2022/01/07 02:50:52;;;;;;;1.70;1.62;;;;;;;2.20;70.35;99811.91;1702117;83;21530;-61
2022/01/07 02:53:18;;;;;;;1.30;1.17;;;;;;;2.18;72.55;99812.55;1694523;83;21030;-62
2022/01/07 02:55:45;;;;;;;1.45;1.02;;;;;;;2.12;73.54;99831.87;1701309;82;21017;-61
2022/01/07 02:58:11;;;;;;;0.70;0.50;;;;;;;2.00;75.92;99834.36;1681589;83;21097;-62
2022/01/07 03:00:38;;;;;;;0.50;0.45;;;;;;;1.84;76.54;99836.77;1682208;83;21121;-61
2022/01/07 03:03:06;;;;;;;;;;;;;;;1.68;76.94;99841.34;1688709;83;21050;-63
2022/01/07 03:05:32;;;;;;;0.70;0.30;;;;;;;1.55;77.57;99856.09;1691133;83;20134;-63
2022/01/07 03:07:58;;;;;;;1.00;0.88;;;;;;;1.42;77.89;99855.56;1691741;83;21108;-63
2022/01/07 03:10:29;;;;;;;;;;;;;;;1.35;78.06;99862.67;1697062;83;21026;-62
2022/01/07 03:12:59;;;;;;;0.63;0.60;;;;;;;1.29;78.06;99864.55;1695300;83;20687;-61
2022/01/07 03:15:25;;;;;;;1.83;0.77;;;;;;;1.17;78.42;99863.06;1689033;83;21029;-62
2022/01/07 03:17:51;;;;;;;0.55;0.30;;;;;;;1.16;78.28;99878.45;1688541;83;21001;-61
2022/01/07 03:20:19;;;;;;;0.30;0.30;;;;;;;1.19;77.61;99879.96;1698765;83;20998;-61
2022/01/07 03:22:48;;;;;;;0.50;0.40;;;;;;;1.17;77.29;99880.13;1690475;83;20991;-61
2022/01/07 03:25:15;;;;;;;0.47;0.20;;;;;;;1.19;76.95;99888.69;1661817;85;21101;-62
2022/01/07 03:27:41;;;;;;;0.30;0.20;;;;;;;1.22;76.40;99887.08;1653065;85;21064;-67
2022/01/07 03:30:11;;;;;;;0.35;0.23;;;;;;;1.25;75.79;99893.87;1653597;85;21141;-66
2022/01/07 03:32:38;;;;;;;0.40;0.30;;;;;;;1.27;75.59;99899.31;1648214;85;20994;-61
2022/01/07 03:35:10;;;;;;;0.47;0.20;;;;;;;1.25;75.34;99903.05;1676722;84;21009;-61
2022/01/07 03:37:39;;;;;;;1.17;0.30;;;;;;;1.25;75.44;99909.63;1653654;85;21025;-61
2022/01/07 03:40:08;;;;;;;0.50;0.50;;;;;;;1.25;74.27;99911.75;1647967;85;21010;-62
2022/01/07 03:42:35;;;;;;;0.67;0.20;;;;;;;1.23;74.18;99912.88;1679889;84;21024;-62
2022/01/07 03:45:03;;;;;;;0.20;0.10;;;;;;;1.19;73.92;99908.84;1643777;85;21072;-66
2022/01/07 03:47:30;;;;;;;0.60;0.20;;;;;;;1.18;73.74;99921.64;1639183;86;21524;-61
2022/01/07 03:49:56;;;;;;;0.55;0.17;;;;;;;1.14;73.47;99925.84;1640738;86;21075;-63
2022/01/07 03:52:22;;;;;;;0.13;0.13;;;;;;;1.09;73.73;99931.16;1641286;86;21484;-63
2022/01/07 03:54:50;;;;;;;0.40;0.20;;;;;;;1.08;73.87;99939.52;1641237;86;21041;-63
2022/01/07 03:57:18;;;;;;;1.50;0.20;;;;;;;1.10;73.65;99942.02;1649362;83;21026;-61
2022/01/07 03:59:47;;;;;;;0.20;0.20;;;;;;;1.11;73.13;99951.07;1650624;85;21341;-68
2022/01/07 04:02:14;;;;;;;0.70;0.10;;;;;;;1.14;72.85;99949.95;1685944;84;21026;-71
2022/01/07 04:04:40;;;;;;;0.40;0.40;;;;;;;0.80;72.90;99903.59;1664876;85;21027;-64
2022/01/07 04:07:07;;;;;;;0.63;0.30;;;;;;;1.20;72.50;99970.41;1685909;84;21112;-61
2022/01/07 04:09:33;;;;;;;0.30;0.30;;;;;;;1.21;72.57;99968.14;1693570;83;21206;-63
2022/01/07 04:12:00;;;;;;;0.40;0.20;;;;;;;1.22;72.58;99969.78;1664602;83;21033;-63
2022/01/07 04:14:27;;;;;;;0.53;0.45;;;;;;;1.25;72.88;99977.89;1646552;87;21536;-63
2022/01/07 04:16:53;;;;;;;;;;;;;;;1.25;73.12;99975.27;1644086;86;21145;-60
2022/01/07 04:19:19;;;;;;;0.50;0.50;;;;;;;1.25;73.75;99977.39;1645864;87;20207;-62
2022/01/07 04:21:47;;;;;;;0.55;0.55;;;;;;;1.24;74.10;99983.59;1643082;86;21009;-63
2022/01/07 04:24:13;;;;;;;0.50;0.40;;;;;;;1.30;74.19;99985.70;1667967;85;22113;-65
2022/01/07 04:26:39;;;;;;;0.40;0.40;;;;;;;1.35;74.26;99983.47;1695125;83;21002;-64
2022/01/07 04:29:05;;;;;;;0.40;0.20;;;;;;;1.38;74.21;99986.81;1678862;85;21003;-62
2022/01/07 04:31:32;;;;;;;0.30;0.20;;;;;;;1.36;74.29;99991.70;1678474;85;21014;-61
2022/01/07 04:33:58;;;;;;;0.98;0.75;;;;;;;1.30;74.48;99994.89;1667958;82;21032;-62
2022/01/07 04:36:24;;;;;;;0.98;0.70;;;;;;;1.31;74.62;100003.59;1691518;83;21054;-62
2022/01/07 04:38:50;;;;;;;1.20;0.60;;;;;;;1.30;75.12;100004.55;1692253;83;21085;-62
2022/01/07 04:41:16;;;;;;;2.05;0.40;;;;;;;1.27;75.31;99996.95;1693714;83;21133;-64
2022/01/07 04:43:42;;;;;;;0.95;0.80;;;;;;;1.24;75.38;100004.60;1695932;83;21121;-67
2022/01/07 04:46:08;;;;;;;1.10;0.47;;;;;;;1.25;75.78;100000.20;1678805;83;21105;-63
2022/01/07 04:48:35;;;;;;;;;;;;;;;1.23;75.67;100014.77;1681418;84;21126;-61
2022/01/07 04:51:02;;;;;;;1.83;1.47;;;;;;;1.22;75.71;100014.41;1650434;85;20494;-65
2022/01/07 04:53:28;;;;;;;;;;;;;;;1.12;76.25;100018.34;1651805;85;21487;-62
2022/01/07 04:55:56;;;;;;;1.33;1.00;;;;;;;1.11;76.33;100026.34;1678990;84;20455;-63
2022/01/07 04:58:22;;;;;;;1.37;1.00;;;;;;;1.09;76.59;100029.59;1679802;84;21064;-71
2022/01/07 05:00:48;;;;;;;1.10;0.70;;;;;;;1.11;76.84;100037.70;1679529;84;21080;-62
2022/01/07 05:03:15;;;;;;;1.40;1.30;;;;;;;1.12;77.09;100037.20;1679715;84;21133;-63
2022/01/07 05:05:45;;;;;;;1.47;1.37;;;;;;;1.06;76.99;100039.06;1679112;84;20990;-62
2022/01/07 05:08:09;;;;;;;2.57;1.20;;;;;;;0.99;77.46;100035.31;1677710;84;21156;-63
2022/01/07 05:10:37;;;;;;;1.27;1.17;;;;;;;0.95;77.78;100045.24;1680185;84;21078;-62
2022/01/07 05:13:03;;;;;;;0.87;0.87;;;;;;;0.45;77.47;99969.94;1679607;84;21026;-64
2022/01/07 05:15:30;;;;;;;0.50;0.47;;;;;;;0.85;77.67;100049.16;1680208;84;21530;-64
2022/01/07 05:17:56;;;;;;;1.80;1.60;;;;;;;0.78;77.12;100058.51;1679181;84;21597;-63
2022/01/07 05:20:22;;;;;;;2.72;2.55;;;;;;;0.76;77.09;100069.62;1679316;84;21081;-63
2022/01/07 05:22:49;;;;;;;1.52;0.95;;;;;;;0.73;76.83;100077.25;1646770;84;21021;-65
2022/01/07 05:25:17;;;;;;;1.23;1.00;;;;;;;0.72;77.00;100076.09;1630252;87;21077;-62
2022/01/07 05:27:44;;;;;;;0.67;0.47;;;;;;;0.77;77.08;100087.86;1662074;86;21003;-65
2022/01/07 05:30:12;;;;;;;;;;;;;;;0.83;76.97;100095.69;1641802;86;21044;-62
2022/01/07 05:32:39;;;;;;;0.50;0.27;;;;;;;0.87;76.76;100090.52;1627490;86;20416;-65
2022/01/07 05:35:07;;;;;;;0.70;0.50;;;;;;;0.83;76.63;100102.70;1676917;84;21106;-65
2022/01/07 05:37:35;;;;;;;2.20;0.40;;;;;;;0.80;76.33;100114.30;1697921;84;21027;-63
2022/01/07 05:40:03;;;;;;;0.63;0.50;;;;;;;0.83;76.30;100117.99;1672617;84;21028;-63
2022/01/07 05:42:29;;;;;;;0.73;0.57;;;;;;;0.85;76.31;100109.97;1677114;84;21053;-63
2022/01/07 05:44:56;;;;;;;1.62;0.65;;;;;;;0.89;76.06;100123.20;1684001;83;21045;-64
2022/01/07 05:47:22;;;;;;;0.57;0.40;;;;;;;0.89;75.79;100114.83;1684427;84;21051;-63
2022/01/07 05:49:49;;;;;;;0.72;0.30;;;;;;;0.88;75.49;100122.34;1683323;84;21105;-63
2022/01/07 05:52:15;;;;;;;0.62;0.40;;;;;;;0.85;75.58;100136.20;1681712;84;21113;-62
2022/01/07 05:54:42;;;;;;;1.00;0.60;;;;;;;0.85;75.58;100136.20;1673868;84;21616;-64
2022/01/07 05:57:08;;;;;;;0.78;0.70;;;;;;;0.78;75.80;100141.16;1688822;83;21009;-72
2022/01/07 05:59:35;;;;;;;2.92;0.80;;;;;;;0.83;75.96;100146.86;1685610;84;21560;-69
2022/01/07 06:02:01;;;;;;;0.55;0.55;;;;;;;0.79;76.03;100157.23;1685020;84;20985;-72
2022/01/07 06:04:27;;;;;;;0.53;0.45;;;;;;;0.76;76.09;100160.14;1685374;84;21529;-69
2022/01/07 06:06:54;;;;;;;0.60;0.30;;;;;;;0.72;75.80;100171.86;1674951;84;21121;-69
2022/01/07 06:09:20;;;;;;;1.20;0.50;;;;;;;0.67;75.71;100169.59;1679223;84;21099;-67
2022/01/07 06:11:46;;;;;;;0.40;0.40;;;;;;;0.63;76.35;100181.80;1684362;84;21099;-68
2022/01/07 06:14:12;;;;;;;;;;;;;;;0.58;76.45;100184.33;1686016;84;21006;-65
2022/01/07 06:16:38;;;;;;;0.70;0.53;;;;;;;0.56;76.70;100190.16;1675526;84;20181;-69
2022/01/07 06:19:04;;;;;;;0.45;0.45;;;;;;;0.47;76.80;100205.38;1686672;84;21569;-68
2022/01/07 06:21:32;;;;;;;1.90;0.43;;;;;;;0.44;76.91;100207.41;1685276;84;21067;-70
2022/01/07 06:23:59;;;;;;;0.30;0.25;;;;;;;0.36;76.69;100223.29;1657490;85;21021;-70
2022/01/07 06:26:25;;;;;;;0.90;0.40;;;;;;;0.36;76.69;100222.47;1651997;85;21163;-70
2022/01/07 06:28:52;;;;;;;0.88;0.50;;;;;;;0.34;76.82;100232.22;1654251;85;21498;-70
2022/01/07 06:31:19;;;;;;;3.00;0.60;;;;;;;0.28;76.73;100237.97;1654887;85;21054;-70
2022/01/07 06:33:45;;;;;;;2.35;1.00;;;;;;;0.24;76.09;100241.80;1658054;84;21039;-70
2022/01/07 06:36:11;;;;;;;1.05;0.82;;;;;;;0.18;75.55;100242.64;1653344;85;21071;-66
2022/01/07 06:38:37;;;;;;;1.10;0.98;;;;;;;0.16;75.18;100243.73;1654619;85;21032;-63
2022/01/07 06:41:04;;;;;;;2.45;1.72;;;;;;;0.14;73.84;100250.41;1661652;84;21079;-64
2022/01/07 06:43:30;;;;;;;1.02;0.78;;;;;;;0.09;72.30;100260.91;1666696;85;21196;-64
2022/01/07 06:45:56;;;;;;;1.00;0.72;;;;;;;0.06;72.04;100265.92;1631657;85;21292;-63
2022/01/07 06:48:22;;;;;;;1.25;0.57;;;;;;;0.08;71.32;100277.11;1643048;85;20997;-66
2022/01/07 06:50:48;;;;;;;2.05;0.65;;;;;;;0.10;70.77;100288.30;1650202;85;21062;-65
2022/01/07 06:53:14;;;;;;;0.95;0.60;;;;;;;0.11;70.70;100291.27;1659363;85;21618;-64
2022/01/07 06:55:40;;;;;;;1.37;1.27;;;;;;;0.15;70.67;100295.78;1655337;84;21050;-67
2022/01/07 06:58:06;;;;;;;2.30;0.62;;;;;;;0.18;70.71;100299.00;1656098;85;21062;-64
2022/01/07 07:00:32;;;;;;;0.57;0.45;;;;;;;0.24;70.96;100302.09;1656028;86;21121;-64
2022/01/07 07:02:58;;;;;;;1.32;1.12;;;;;;;0.28;71.00;100296.47;1647436;85;21031;-66
2022/01/07 07:05:25;;;;;;;0.70;0.70;;;;;;;0.36;71.25;100311.62;1658692;85;21033;-63
2022/01/07 07:07:52;;;;;;;0.55;0.53;;;;;;;0.41;70.48;100318.61;1651734;86;20962;-65
2022/01/07 07:10:19;;;;;;;0.93;0.93;;;;;;;0.44;70.09;100320.17;1648537;86;21554;-71
2022/01/07 07:12:46;;;;;;;1.20;1.10;;;;;;;0.44;70.51;100322.31;1664614;84;21041;-65
2022/01/07 07:15:12;;;;;;;1.40;1.12;;;;;;;0.58;70.49;100318.56;1683574;83;21504;-65
2022/01/07 07:17:41;;;;;;;2.17;1.17;;;;;;;0.58;70.49;100318.56;1676749;84;21040;-69
2022/01/07 07:20:09;;;;;;;1.27;0.80;;;;;;;0.63;70.28;100333.95;1669737;84;21061;-73
2022/01/07 07:22:35;;;;;;;1.30;0.57;;;;;;;0.65;70.25;100335.48;1661373;85;21069;-63
2022/01/07 07:25:01;;;;;;;0.70;0.60;;;;;;;0.70;69.00;100350.38;1658733;85;21094;-66
2022/01/07 07:27:27;;;;;;;3.42;0.78;;;;;;;0.73;68.74;100354.05;1669542;85;21115;-67
2022/01/07 07:29:54;;;;;;;0.70;0.70;;;;;;;0.76;68.92;100359.54;1653950;86;21074;-65
2022/01/07 07:32:25;;;;;;;1.00;0.93;;;;;;;0.82;69.00;100358.21;1654542;86;21139;-69
2022/01/07 07:37:23;;;;;;;2.10;1.30;;;;;;;0.88;68.29;100356.39;1650562;86;21060;-68
2022/01/07 07:39:49;;;;;;;1.02;0.65;;;;;;;0.86;67.94;100359.13;1645870;86;21604;-64
2022/01/07 07:42:15;;;;;;;1.20;0.33;;;;;;;0.82;67.53;100366.08;1650050;86;21105;-64
2022/01/07 07:44:43;;;;;;;1.17;0.57;;;;;;;0.81;68.04;100377.06;1660666;85;21083;-67
2022/01/07 07:47:10;;;;;;;0.50;0.42;;;;;;;0.82;66.49;100361.66;1675291;85;21151;-67
2022/01/07 07:49:36;;;;;;;1.75;0.50;;;;;;;0.42;66.07;100316.36;1675373;84;20986;-65
2022/01/07 07:54:13;;;;;;;0.80;0.50;;;;;;;0.86;63.41;100384.06;1790199;78;22700;-70
2022/01/07 07:56:39;;;;;;;0.28;0.25;;;;;;;0.84;63.39;100403.04;1722856;80;21476;-72
2022/01/07 07:59:05;;;;;;;2.35;0.68;;;;;;;0.85;62.37;100406.03;1707102;81;21875;-63
2022/01/07 08:01:32;;;;;;;0.70;0.40;;;;;;;0.90;61.33;100411.72;1668748;82;21015;-66
2022/01/07 08:03:58;;;;;;;1.70;0.30;;;;;;;0.94;60.38;100408.38;1646792;85;21178;-67
2022/01/07 08:06:24;;;;;;;0.30;0.20;;;;;;;0.96;58.46;100421.75;1639710;85;21107;-64
2022/01/07 08:08:50;;;;;;;0.68;0.35;;;;;;;0.98;57.64;100422.94;1636859;85;21078;-64
2022/01/07 08:11:17;;;;;;;0.62;0.15;;;;;;;0.98;57.66;100436.06;1647661;83;22751;-66
2022/01/07 08:16:28;;;;;;;0.40;0.20;;;;;;;0.99;55.72;100440.83;1683217;83;21101;-78
2022/01/07 08:18:58;;;;;;;1.00;0.68;;;;;;;1.00;53.83;100434.61;1678703;83;21082;-65
2022/01/07 08:21:27;;;;;;;0.40;0.10;;;;;;;0.99;53.57;100448.70;1687923;83;21150;-64
2022/01/07 08:23:55;;;;;;;0.90;0.47;;;;;;;0.99;53.08;100453.47;1688494;82;21200;-67
2022/01/07 08:26:23;;;;;;;0.30;0.17;;;;;;;0.99;51.43;100461.34;1678674;83;21052;-65
2022/01/07 08:28:57;;;;;;;0.83;0.13;;;;;;;0.97;49.57;100460.14;1683114;83;21133;-68
2022/01/07 08:36:34;;;;;;;0.30;0.20;;;;;;;0.95;47.98;100493.56;1680062;83;21553;-64
2022/01/07 08:39:01;;;;;;;0.33;0.33;;;;;;;0.98;48.41;100497.75;1686484;83;21226;-65
2022/01/07 08:41:30;;;;;;;0.27;0.23;;;;;;;1.02;48.86;100499.62;1683538;83;21026;-65
2022/01/07 08:43:57;;;;;;;0.60;0.20;;;;;;;1.04;47.94;100497.73;1682763;83;20986;-66
2022/01/07 08:46:23;;;;;;;0.40;0.20;;;;;;;1.06;46.95;100511.57;1703741;82;21107;-67
2022/01/07 08:48:50;;;;;;;0.95;0.20;;;;;;;1.09;46.13;100516.10;1705483;82;21077;-64
2022/01/07 08:51:16;;;;;;;0.55;0.37;;;;;;;1.08;45.69;100523.61;1706295;82;21045;-68
2022/01/07 08:53:42;;;;;;;0.72;0.30;;;;;;;1.11;46.22;100520.75;1699662;82;21103;-66
2022/01/07 08:56:10;;;;;;;0.42;0.33;;;;;;;1.07;43.87;100518.47;1690991;82;21086;-65
2022/01/07 08:58:37;;;;;;;0.40;0.30;;;;;;;1.03;44.73;100529.69;1690234;82;21151;-65
2022/01/07 09:01:05;;;;;;;0.27;0.20;;;;;;;1.01;45.42;100534.23;1699716;82;21142;-66
2022/01/07 09:03:31;;;;;;;0.67;0.30;;;;;;;1.05;44.28;100538.28;1687443;82;21023;-64
2022/01/07 09:05:59;;;;;;;0.78;0.35;;;;;;;1.06;45.36;100543.90;1700016;82;21054;-68
2022/01/07 09:08:26;;;;;;;0.70;0.50;;;;;;;1.14;45.27;100548.54;1694008;82;21054;-73
2022/01/07 09:10:52;;;;;;;0.30;0.20;;;;;;;1.23;45.26;100554.86;1692499;82;21106;-67
2022/01/07 09:13:20;;;;;;;0.23;0.10;;;;;;;1.27;45.33;100555.79;1683918;82;21412;-69
2022/01/07 09:15:47;;;;;;;0.93;0.10;;;;;;;1.33;43.61;100553.98;1642655;86;21016;-66
2022/01/07 09:18:14;;;;;;;0.50;0.30;;;;;;;1.33;42.99;100562.34;1699683;82;20971;-69
2022/01/07 09:20:44;;;;;;;0.67;0.20;;;;;;;1.38;43.22;100560.68;1687601;82;21038;-68
2022/01/07 09:23:12;;;;;;;0.40;0.20;;;;;;;1.37;42.91;100570.33;1700607;82;21027;-69
2022/01/07 09:25:39;;;;;;;0.20;0.10;;;;;;;1.38;43.13;100569.38;1704802;82;21542;-68
2022/01/07 09:28:06;;;;;;;;;;;;;;;1.35;43.39;100562.56;1697810;82;21420;-64
2022/01/07 09:30:34;;;;;;;3.62;0.20;;;;;;;1.33;43.34;100556.60;1688380;82;20143;-65
2022/01/07 09:33:01;;;;;;;0.10;0.10;;;;;;;1.23;42.89;100564.88;1700987;82;21110;-66
2022/01/07 09:35:27;;;;;;;;;;;;;;;1.15;43.85;100573.85;1694228;82;21002;-67
2022/01/07 09:37:54;;;;;;;0.70;0.43;;;;;;;1.06;43.89;100571.95;1700600;82;20232;-70
2022/01/07 09:40:22;;;;;;;1.75;0.30;;;;;;;0.97;43.90;100582.20;1702765;82;21360;-64
2022/01/07 09:43:03;;;;;;;1.33;0.30;;;;;;;0.90;44.37;100578.86;1688377;82;21034;-68
2022/01/07 09:45:31;;;;;;;3.20;1.83;;;;;;;0.83;45.02;100586.40;1673291;83;21050;-67
2022/01/07 09:47:58;;;;;;;0.60;0.20;;;;;;;0.81;45.64;100579.58;1661446;84;22273;-66
2022/01/07 09:50:27;;;;;;;0.47;0.10;;;;;;;0.81;44.74;100587.00;1660418;84;21000;-68
2022/01/07 09:52:53;;;;;;;0.53;0.10;;;;;;;0.76;45.41;100586.51;1666886;84;21186;-68
2022/01/07 09:55:20;;;;;;;0.55;0.35;;;;;;;0.73;44.99;100583.63;1661453;83;21040;-65
2022/01/07 09:57:47;;;;;;;1.07;0.30;;;;;;;0.76;45.86;100596.52;1689075;83;21041;-67
2022/01/07 10:00:13;;;;;;;2.85;0.15;;;;;;;0.84;46.59;100592.47;1690992;83;21073;-69
2022/01/07 10:03:00;;;;;;;;;;;;;;;0.90;46.24;100593.30;1692290;83;21179;-65
2022/01/07 10:05:28;;;;;;;2.83;0.30;;;;;;;0.91;46.20;100597.61;1675709;84;20461;-66
2022/01/07 10:07:54;;;;;;;0.80;0.50;;;;;;;0.90;46.08;100607.73;1683057;84;21074;-63
2022/01/07 10:10:20;;;;;;;1.55;0.20;;;;;;;0.94;46.16;100613.95;1692389;84;21046;-63
2022/01/07 10:12:59;;;;;;;0.68;0.40;;;;;;;1.00;46.46;100609.16;1679065;84;21085;-63
2022/01/07 10:15:36;;;;;;;2.20;0.20;;;;;;;1.08;46.49;100617.30;1683346;84;21125;-65
2022/01/07 10:18:09;;;;;;;3.10;0.40;;;;;;;1.17;47.25;100631.02;1684849;84;21550;-63
2022/01/07 10:20:46;;;;;;;0.83;0.20;;;;;;;1.24;46.91;100630.86;1674222;84;21633;-62
2022/01/07 10:23:17;;;;;;;2.37;0.30;;;;;;;1.23;47.62;100627.90;1693590;84;21191;-62
2022/01/07 10:25:46;;;;;;;1.70;0.40;;;;;;;1.26;47.86;100631.61;1683393;84;21046;-63
2022/01/07 10:28:16;;;;;;;1.53;0.43;;;;;;;1.29;47.74;100628.72;1674487;84;21066;-77
2022/01/07 10:30:50;;;;;;;2.80;0.90;;;;;;;1.32;47.87;100633.74;1682762;84;21109;-64
2022/01/07 10:33:26;;;;;;;0.80;0.60;;;;;;;1.32;47.03;100641.63;1676553;84;21570;-66
2022/01/07 10:35:57;;;;;;;0.80;0.23;;;;;;;1.28;47.42;100638.89;1676113;84;21007;-64
2022/01/07 10:38:27;;;;;;;0.70;0.30;;;;;;;1.20;47.96;100641.26;1675709;84;21641;-63
2022/01/07 10:40:59;;;;;;;0.73;0.30;;;;;;;1.08;47.62;100646.17;1668800;84;21030;-63
2022/01/07 10:43:32;;;;;;;1.20;0.90;;;;;;;0.97;48.69;100644.37;1669075;84;21601;-65
2022/01/07 10:46:03;;;;;;;2.30;1.00;;;;;;;0.89;48.98;100644.97;1675120;84;21077;-64
2022/01/07 10:48:55;;;;;;;1.67;1.10;;;;;;;0.85;49.10;100643.53;1673792;84;21308;-61
2022/01/07 10:51:31;;;;;;;2.17;1.77;;;;;;;0.84;49.68;100656.28;1673987;84;21022;-63
2022/01/07 10:54:04;;;;;;;1.23;0.87;;;;;;;0.80;49.72;100656.16;1682453;84;21391;-63
2022/01/07 10:56:47;;;;;;;1.30;0.43;;;;;;;0.78;50.13;100655.45;1673563;84;21042;-63
2022/01/07 10:59:15;;;;;;;0.70;0.63;;;;;;;0.79;49.91;100645.30;1681398;84;21026;-64
2022/01/07 11:01:48;;;;;;;1.63;0.73;;;;;;;0.73;49.99;100651.84;1677809;84;21624;-62
2022/01/07 11:04:26;;;;;;;1.60;0.63;;;;;;;0.69;50.53;100648.27;1671928;84;21078;-67
2022/01/07 11:06:53;;;;;;;;;;;;;;;0.71;50.76;100640.64;1679051;84;21114;-64
2022/01/07 11:09:20;;;;;;;0.72;0.40;;;;;;;0.55;50.17;100648.84;1682064;84;20154;-70
2022/01/07 11:12:00;;;;;;;1.20;0.70;;;;;;;0.49;50.84;100657.64;1675116;84;21067;-64
2022/01/07 11:14:29;;;;;;;1.90;0.50;;;;;;;0.46;51.12;100658.72;1676162;84;21885;-64
2022/01/07 11:16:59;;;;;;;0.73;0.73;;;;;;;0.49;51.46;100648.01;1689260;84;21019;-65
2022/01/07 11:19:39;;;;;;;2.57;1.03;;;;;;;0.56;51.58;100646.57;1671763;84;21015;-65
2022/01/07 11:22:11;;;;;;;1.23;0.57;;;;;;;0.70;51.73;100635.53;1683395;84;20986;-62
2022/01/07 11:24:43;;;;;;;0.37;0.27;;;;;;;0.82;51.14;100633.27;1684818;84;21109;-64
2022/01/07 11:27:16;;;;;;;2.20;0.30;;;;;;;0.90;51.28;100637.92;1671219;84;21090;-65
2022/01/07 11:29:54;;;;;;;3.33;0.47;;;;;;;0.96;51.08;100644.86;1671258;84;21038;-63
2022/01/07 11:32:35;;;;;;;2.27;0.63;;;;;;;1.00;50.69;100635.41;1677783;84;21074;-62
2022/01/07 11:35:23;;;;;;;1.97;0.67;;;;;;;1.03;50.66;100647.00;1679254;83;21010;-65
2022/01/07 11:37:54;;;;;;;3.65;0.60;;;;;;;1.07;50.75;100651.05;1661741;84;21069;-64
2022/01/07 11:40:41;;;;;;;2.33;0.53;;;;;;;1.02;50.62;100646.63;1680246;84;21211;-65
2022/01/07 11:43:31;;;;;;;1.10;0.40;;;;;;;0.99;50.65;100660.01;1644945;85;21136;-66
2022/01/07 11:45:55;;;;;;;0.50;0.30;;;;;;;0.92;51.42;100665.73;1670308;83;21125;-62
2022/01/07 11:48:26;;;;;;;1.13;0.63;;;;;;;0.87;51.52;100665.24;1682998;83;21106;-64
2022/01/07 11:51:01;;;;;;;0.90;0.50;;;;;;;0.91;51.13;100668.47;1682709;84;21041;-64
2022/01/07 11:53:41;;;;;;;1.03;0.80;;;;;;;0.93;51.29;100669.19;1674657;84;21107;-65
2022/01/07 11:56:12;;;;;;;2.30;0.97;;;;;;;0.81;51.40;100673.59;1646348;85;21069;-62